Latest Weather Observations for Camden

IDN60801

Issued at 5:32 am EDT Friday 24 November 2017 (issued every 30 minutes, with the page automatically refreshed every 10 minutes)

About weather observations | Map of weather stations | Latest weather observations for NSW | Other Formats
Station Details ID: 068192 Name: CAMDEN AIRPORT AWS Lat: -34.04 Lon: 150.69 Height: 73.9 m
Data from the previous 72 hours. | See also: Recent months at Camden
Date/Time
EDT
Temp
°C
App
Temp
°C
Dew
Point
°C
Rel
Hum
%
Delta-T
°C
Wind Press
QNH
hPa
Press
MSL
hPa
Rain since
9am
mm
Dir  Spd
km/h
Gust
km/h
Spd
kts
Gust
kts
24/05:30am 13.9 15.1 13.7 99 0.1 CALM 0 0 0 0 1016.0 1015.7 0.0
24/05:00am 13.7 14.7 13.2 97 0.3 CALM 0 0 0 0 1015.7 1015.4 0.0
24/04:30am 14.5 15.7 13.9 96 0.3 CALM 0 0 0 0 1015.6 1015.3 0.0
24/04:23am 14.4 15.6 13.8 96 0.3 CALM 0 0 0 0 1015.6 1015.3 0.0
24/04:00am 14.7 15.9 13.9 95 0.4 CALM 0 0 0 0 1015.2 1015.0 0.0
24/03:46am 14.8 16.0 13.7 93 0.6 CALM 0 0 0 0 1015.2 1015.0 0.0
24/03:30am 14.8 16.0 13.7 93 0.6 CALM 0 0 0 0 1015.5 1015.2 0.0
24/03:00am 15.3 16.7 14.3 94 0.6 CALM 0 0 0 0 1015.6 1015.3 0.0
24/02:30am 15.5 16.8 14.0 91 0.8 CALM 0 0 0 0 1015.7 1015.4 0.0
24/02:00am 15.9 17.3 14.3 90 0.9 CALM 0 0 0 0 1015.7 1015.4 0.0
24/01:30am 16.2 17.6 14.4 89 1.0 CALM 0 0 0 0 1015.9 1015.6 0.0
24/01:00am 16.9 18.3 14.5 86 1.4 CALM 0 0 0 0 1015.7 1015.4 0.0
24/12:30am 16.9 18.2 14.0 83 1.7 CALM 0 0 0 0 1016.0 1015.7 0.0
24/12:00am 17.6 18.8 13.9 79 2.1 CALM 0 0 0 0 1016.6 1016.3 0.0
 
Date/Time
EDT
Temp
°C
App
Temp
°C
Dew
Point
°C
Rel
Hum
%
Delta-T
°C
Wind Press
QNH
hPa
Press
MSL
hPa
Rain since
9am
mm
Dir  Spd
km/h
Gust
km/h
Spd
kts
Gust
kts
23/11:30pm 18.5 19.9 14.4 77 2.4 CALM 0 0 0 0 1017.0 1016.8 0.0
23/11:00pm 19.3 20.7 14.3 73 2.9 CALM 0 0 0 0 1017.2 1017.0 0.0
23/10:30pm 19.6 19.7 14.4 72 3.0 SSE 7 11 4 6 1017.2 1017.0 0.0
23/10:00pm 19.8 19.5 14.4 71 3.1 SE 9 15 5 8 1017.3 1017.1 0.0
23/09:30pm 20.1 20.4 14.5 70 3.3 SSE 6 9 3 5 1017.1 1016.9 0.0
23/09:00pm 20.5 20.6 14.4 68 3.6 SSE 7 9 4 5 1016.8 1016.6 0.0
23/08:30pm 21.3 21.7 14.7 66 3.9 E 6 13 3 7 1016.4 1016.1 0.0
23/08:00pm 21.2 21.2 15.1 68 3.6 ESE 9 17 5 9 1015.7 1015.4 0.0
23/07:35pm 21.6 20.8 15.0 66 3.9 E 13 20 7 11 1015.0 1014.8 0.0
23/07:30pm 21.7 20.8 14.8 65 4.1 E 13 19 7 10 1015.1 1014.9 0.0
23/07:16pm 22.4 20.0 14.3 60 4.8 NE 20 28 11 15 1015.0 1014.8 0.0
23/07:00pm 22.7 21.0 13.7 56 5.2 ENE 15 22 8 12 1015.0 1014.8 0.0
23/06:30pm 23.3 22.0 13.8 55 5.6 ENE 13 20 7 11 1014.5 1014.3 0.0
23/06:00pm 24.0 21.8 13.2 50 6.3 ENE 17 26 9 14 1013.8 1013.6 0.0
23/05:30pm 25.0 22.1 12.9 47 7.0 ENE 20 26 11 14 1013.3 1013.1 0.0
23/05:00pm 26.7 24.0 13.4 43 7.8 ENE 20 30 11 16 1013.7 1013.5 0.0
23/04:30pm 26.7 23.6 13.4 43 7.8 ENE 22 35 12 19 1013.4 1013.2 0.0
23/04:00pm 27.9 24.9 13.8 42 8.4 ENE 22 35 12 19 1013.1 1012.9 0.0
23/03:30pm 28.2 24.8 12.5 37 9.2 NE 22 35 12 19 1013.1 1012.9 0.0
23/03:00pm 28.8 25.6 13.1 38 9.3 NE 22 32 12 17 1013.7 1013.5 0.0
23/02:30pm 27.0 24.2 11.5 38 8.9 NNE 17 28 9 15 1013.9 1013.7 0.0
23/02:00pm 28.3 25.6 10.5 33 10.1 NNE 15 26 8 14 1014.3 1014.1 0.0
23/01:30pm 28.0 25.5 11.1 35 9.7 NNE 15 26 8 14 1014.8 1014.6 0.0
23/01:00pm 27.9 25.1 11.5 36 9.4 N 17 22 9 12 1015.5 1015.2 0.0
23/12:30pm 26.8 23.5 10.9 37 9.0 NNE 19 26 10 14 1015.9 1015.6 0.0
23/12:00pm 26.1 22.9 11.8 41 8.2 NE 20 32 11 17 1016.5 1016.2 0.0
23/11:30am 25.0 21.6 11.2 42 7.8 NE 20 30 11 16 1016.9 1016.7 0.0
23/11:00am 24.8 21.9 11.0 42 7.7 N 17 24 9 13 1017.3 1017.1 0.0
23/10:30am 23.9 20.9 11.9 47 6.8 NE 19 28 10 15 1017.5 1017.3 0.0
23/10:00am 22.7 21.0 12.6 53 5.8 NNW 13 20 7 11 1017.6 1017.4 0.0
23/09:30am 21.3 20.6 13.2 60 4.7 NW 9 15 5 8 1017.9 1017.7 0.0
23/09:00am 20.1 19.9 13.6 66 3.7 N 7 11 4 6 1018.2 1018.0 0.0
23/08:30am 19.8 21.0 13.7 68 3.5 CALM 0 0 0 0 1018.3 1018.1 0.0
23/08:00am 18.1 19.3 13.8 76 2.5 CALM 0 0 0 0 1018.3 1018.1 0.0
23/07:30am 15.9 16.9 13.2 84 1.5 CALM 0 0 0 0 1018.1 1017.9 0.0
23/07:00am 15.1 16.1 13.3 89 1.0 CALM 0 0 0 0 1017.9 1017.7 0.0
23/06:36am 13.8 14.9 13.6 99 0.1 CALM 0 0 0 0 1017.9 1017.7 0.0
23/06:30am 13.1 14.0 12.9 99 0.1 CALM 0 0 0 0 1017.9 1017.7 0.0
23/06:00am 12.2 12.8 11.9 98 0.2 CALM 0 0 0 0 1017.7 1017.5 0.0
23/05:30am 12.8 13.6 12.5 98 0.2 CALM 0 0 0 0 1017.4 1017.2 0.0
23/05:00am 13.0 13.8 12.7 98 0.2 CALM 0 0 0 0 1017.0 1016.8 0.0
23/04:40am 13.1 13.9 12.6 97 0.3 CALM 0 0 0 0 1016.9 1016.7 0.0
23/04:37am 12.9 13.6 12.3 96 0.3 CALM 0 0 0 0 1016.9 1016.7 0.0
23/04:30am 12.9 13.6 12.3 96 0.3 CALM 0 0 0 0 1016.9 1016.7 0.0
23/04:22am 13.1 13.9 12.5 96 0.3 CALM 0 0 0 0 1016.9 1016.7 0.0
23/04:19am 13.1 13.9 12.5 96 0.3 CALM 0 0 0 0 1016.9 1016.7 0.0
23/04:00am 13.3 14.1 12.5 95 0.4 CALM 0 0 0 0 1016.8 1016.6 0.0
23/03:59am 13.4 14.2 12.6 95 0.4 CALM 0 0 0 0 1016.8 1016.6 0.0
23/03:30am 13.5 14.3 12.7 95 0.4 CALM 0 0 0 0 1016.9 1016.7 0.0
23/03:00am 14.3 15.3 13.3 94 0.6 CALM 0 0 0 0 1017.3 1017.1 0.0
23/02:30am 14.6 15.7 13.6 94 0.6 CALM 0 0 0 0 1017.4 1017.2 0.0
23/02:00am 14.9 15.9 13.3 90 0.9 CALM 0 0 0 0 1017.7 1017.5 0.0
23/01:30am 15.4 16.6 13.8 90 0.9 CALM 0 0 0 0 1017.8 1017.6 0.0
23/01:00am 15.7 16.9 13.7 88 1.1 CALM 0 0 0 0 1018.0 1017.8 0.0
23/12:30am 15.8 16.3 14.0 89 1.0 SE 4 6 2 3 1018.3 1018.1 0.0
23/12:00am 15.8 16.5 13.3 85 1.4 SSE 2 7 1 4 1018.5 1018.3 0.0
 
Date/Time
EDT
Temp
°C
App
Temp
°C
Dew
Point
°C
Rel
Hum
%
Delta-T
°C
Wind Press
QNH
hPa
Press
MSL
hPa
Rain since
9am
mm
Dir  Spd
km/h
Gust
km/h
Spd
kts
Gust
kts
22/11:30pm 17.0 18.1 13.5 80 2.0 CALM 0 0 0 0 1018.7 1018.5 0.0
22/11:00pm 17.9 19.0 13.4 75 2.5 CALM 0 0 0 0 1018.9 1018.7 0.0
22/10:30pm 18.5 19.6 13.6 73 2.8 CALM 0 0 0 0 1019.1 1018.9 0.0
22/10:00pm 18.5 18.3 13.6 73 2.8 NE 7 11 4 6 1019.2 1019.0 0.0
22/09:30pm 18.8 18.8 13.6 72 3.0 ENE 6 9 3 5 1019.2 1019.0 0.0
22/09:00pm 18.8 18.6 13.6 72 3.0 ENE 7 11 4 6 1019.0 1018.8 0.0
22/08:30pm 19.3 18.3 13.3 68 3.4 ENE 11 15 6 8 1018.8 1018.6 0.0
22/08:00pm 19.6 18.3 12.6 64 3.9 E 11 15 6 8 1018.4 1018.2 0.0
22/07:30pm 19.9 18.4 11.9 60 4.5 E 11 15 6 8 1018.2 1018.0 0.0
22/07:00pm 20.6 18.4 12.1 58 4.8 E 15 22 8 12 1017.9 1017.7 0.0
22/06:30pm 21.4 19.3 12.5 57 5.1 E 15 24 8 13 1017.7 1017.5 0.0
22/06:00pm 21.9 19.0 12.2 54 5.5 E 19 28 10 15 1017.4 1017.2 0.0
22/05:30pm 22.3 19.5 12.5 53 5.6 E 19 28 10 15 1017.2 1017.0 0.0
22/05:00pm 22.7 19.8 12.9 54 5.6 ENE 20 32 11 17 1017.3 1017.1 0.0
22/04:30pm 24.5 22.9 14.0 52 6.2 E 15 20 8 11 1017.4 1017.2 0.0
22/04:00pm 23.2 20.8 12.5 51 6.1 E 17 24 9 13 1017.6 1017.4 0.0
22/03:30pm 24.1 21.7 12.7 49 6.6 E 17 24 9 13 1017.9 1017.7 0.0
22/03:00pm 24.9 22.8 13.5 49 6.7 NE 17 24 9 13 1018.2 1018.0 0.0
22/02:30pm 23.4 21.6 12.1 49 6.4 ENE 13 22 7 12 1018.6 1018.4 0.0
22/02:00pm 23.4 22.4 12.4 50 6.3 ENE 9 15 5 8 1019.0 1018.8 0.0
22/01:30pm 23.1 22.1 12.4 51 6.1 SSE 9 17 5 9 1019.4 1019.2 0.0
22/01:00pm 22.9 22.3 12.2 51 6.1 SW 7 15 4 8 1019.9 1019.7 0.0
22/12:30pm 22.0 21.0 12.3 54 5.5 SSE 9 13 5 7 1020.3 1020.1 0.0
22/12:00pm 21.0 19.4 12.7 59 4.7 SSE 13 17 7 9 1020.6 1020.4 0.0
22/11:30am 20.1 17.7 12.6 62 4.2 SSE 17 22 9 12 1020.8 1020.6 0.0
22/11:00am 20.4 18.9 13.1 63 4.2 SE 13 17 7 9 1021.1 1020.9 0.0
22/10:30am 20.7 20.2 13.9 65 3.9 SE 9 19 5 10 1021.1 1020.9 0.0
22/10:00am 20.0 19.4 13.5 66 3.7 ESE 9 11 5 6 1021.3 1021.1 0.0
22/09:30am 19.7 20.2 13.9 69 3.3 S 4 11 2 6 1021.4 1021.2 0.0
22/09:00am 18.4 19.1 13.5 73 2.8 SE 2 9 1 5 1021.7 1021.5 0.0
22/08:30am 17.8 19.2 14.3 80 2.0 CALM 0 0 0 0 1021.6 1021.4 0.0
22/08:00am 17.0 18.2 13.7 81 1.9 CALM 0 0 0 0 1021.7 1021.5 0.0
22/07:30am 16.3 17.4 13.4 83 1.6 CALM 0 0 0 0 1021.4 1021.2 0.0
22/07:00am 15.7 16.7 13.2 85 1.4 CALM 0 0 0 0 1021.2 1021.0 0.0
22/06:30am 15.0 16.1 13.4 90 0.9 CALM 0 0 0 0 1021.0 1020.8 0.0
22/06:00am 14.4 15.2 12.6 89 1.0 CALM 0 7 0 4 1021.0 1020.8 0.0
22/05:30am 14.1 14.8 12.3 89 1.0 CALM 0 0 0 0 1020.9 1020.7 0.0
22/05:00am 14.2 15.0 12.4 89 1.0 CALM 0 0 0 0 1020.7 1020.5 0.0
22/04:30am 14.1 14.4 12.1 88 1.1 SSE 2 7 1 4 1020.7 1020.5 0.0
22/04:00am 13.9 13.6 11.6 86 1.2 SSW 4 7 2 4 1020.5 1020.3 0.0
22/03:30am 14.8 15.1 12.1 84 1.5 S 2 6 1 3 1020.7 1020.5 0.0
22/03:00am 15.2 16.0 12.7 85 1.4 CALM 0 0 0 0 1020.9 1020.7 0.0
22/02:30am 14.8 15.6 12.5 86 1.3 CALM 0 0 0 0 1021.0 1020.8 0.0
22/02:00am 14.6 15.0 12.5 87 1.1 SSW 2 7 1 4 1021.3 1021.1 0.0
22/01:30am 14.6 14.1 11.9 84 1.5 S 6 9 3 5 1021.4 1021.2 0.0
22/01:00am 15.4 14.7 12.0 80 1.8 S 7 9 4 5 1021.8 1021.6 0.0
22/12:30am 16.0 16.6 11.8 76 2.3 CALM 0 0 0 0 1022.2 1022.0 0.0
22/12:00am 16.8 17.5 12.1 74 2.6 CALM 0 0 0 0 1022.5 1022.3 0.0
 
Date/Time
EDT
Temp
°C
App
Temp
°C
Dew
Point
°C
Rel
Hum
%
Delta-T
°C
Wind Press
QNH
hPa
Press
MSL
hPa
Rain since
9am
mm
Dir  Spd
km/h
Gust
km/h
Spd
kts
Gust
kts
21/11:30pm 16.9 17.5 11.8 72 2.8 CALM 0 0 0 0 1022.8 1022.6 0.0
21/11:00pm 17.7 18.4 12.2 70 3.0 CALM 0 0 0 0 1022.9 1022.7 0.0
21/10:30pm 18.2 17.6 12.2 68 3.3 ENE 7 11 4 6 1023.0 1022.8 0.0
21/10:00pm 18.3 17.3 12.3 68 3.3 ENE 9 15 5 8 1023.3 1023.1 0.0
21/09:30pm 17.9 17.2 11.9 68 3.3 E 7 9 4 5 1023.2 1023.0 0.0
21/09:00pm 17.9 17.3 11.7 67 3.4 ENE 6 7 3 4 1023.2 1023.0 0.0
21/08:30pm 18.3 17.0 11.4 64 3.8 E 9 13 5 7 1023.0 1022.8 0.0
21/08:00pm 19.0 17.0 11.6 62 4.1 E 13 20 7 11 1022.9 1022.7 0.0
21/07:30pm 19.4 17.5 11.7 61 4.3 E 13 17 7 9 1022.7 1022.5 0.0
21/07:00pm 19.6 17.2 11.4 59 4.5 E 15 20 8 11 1022.3 1022.1 0.0
21/06:30pm 20.5 17.1 11.2 55 5.1 E 20 28 11 15 1021.8 1021.6 0.0
21/06:00pm 21.7 18.2 10.8 50 6.0 ENE 20 32 11 17 1021.5 1021.3 0.0
21/05:30pm 23.3 19.8 11.0 46 6.9 ENE 20 30 11 16 1021.4 1021.2 0.0
21/05:00pm 23.7 20.1 10.7 44 7.2 ENE 20 26 11 14 1021.4 1021.2 0.0
21/04:30pm 23.6 20.3 9.6 41 7.6 E 17 24 9 13 1021.4 1021.2 0.0
21/04:00pm 24.7 22.0 10.2 40 8.0 NE 15 24 8 13 1021.4 1021.2 0.0
21/03:30pm 24.8 21.6 9.9 39 8.2 E 17 22 9 12 1021.7 1021.5 0.0
21/03:00pm 24.5 22.1 10.0 40 8.0 ENE 13 20 7 11 1022.0 1021.8 0.0
21/02:30pm 23.8 20.4 7.8 36 8.5 E 15 24 8 13 1022.5 1022.3 0.0
21/02:00pm 23.2 19.6 8.5 39 7.8 NE 17 30 9 16 1022.9 1022.7 0.0
21/01:30pm 24.6 21.8 8.5 36 8.7 ENE 13 24 7 13 1023.3 1023.1 0.0
21/01:00pm 24.6 22.3 9.0 37 8.4 ESE 11 19 6 10 1023.6 1023.4 0.0
21/12:30pm 23.6 20.8 8.5 38 8.1 ESE 13 20 7 11 1024.1 1023.9 0.0
21/12:00pm 22.9 20.4 8.2 39 7.7 E 11 17 6 9 1024.4 1024.2 0.0
21/11:30am 22.1 19.8 7.5 39 7.6 E 9 15 5 8 1024.5 1024.3 0.0
21/11:00am 21.7 19.7 8.6 43 6.9 SSE 9 15 5 8 1024.9 1024.7 0.0
21/10:30am 21.9 19.3 9.4 45 6.7 SE 13 22 7 12 1024.9 1024.7 0.0
21/10:00am 20.6 18.2 8.6 46 6.3 SE 11 17 6 9 1025.1 1024.9 0.0
21/09:30am 20.7 18.2 9.6 49 6.0 ESE 13 19 7 10 1025.2 1025.0 0.0
21/09:00am 22.0 19.1 9.5 45 6.7 ESE 15 20 8 11 1025.1 1024.9 0.0
21/08:30am 19.1 19.6 11.7 62 4.1 CALM 0 6 0 3 1025.1 1024.9 0.0
21/08:00am 18.0 17.9 12.0 68 3.3 SSE 4 9 2 5 1025.1 1024.9 0.0
21/07:30am 16.9 17.6 12.2 74 2.6 CALM 0 0 0 0 1024.9 1024.7 0.0
21/07:00am 15.4 16.2 12.7 84 1.5 CALM 0 0 0 0 1024.7 1024.5 0.0
21/06:30am 14.4 15.3 12.8 90 0.9 CALM 0 0 0 0 1024.6 1024.4 0.0
21/06:00am 13.9 14.7 12.5 91 0.8 CALM 0 0 0 0 1024.5 1024.3 0.0

Other Formats:

Comma delimited format used in spreadsheet applications
http://www.bom.gov.au/fwo/IDN60801/IDN60801.94755.axf

JavaScript Object Notation format (JSON) in row-major order
http://www.bom.gov.au/fwo/IDN60801/IDN60801.94755.json